sensor_id;sensor_type;location;lat;lon;timestamp;pressure;altitude;pressure_sealevel;temperature;humidity
45050;BME280;61798;48.048;-1.928;2023-10-19T00:00:42;98175.38;;;13.90;100.00
45050;BME280;61798;48.048;-1.928;2023-10-19T00:02:52;98210.28;;;14.16;100.00
45050;BME280;61798;48.048;-1.928;2023-10-19T00:05:18;98206.44;;;14.27;100.00
45050;BME280;61798;48.048;-1.928;2023-10-19T00:07:27;98193.84;;;14.17;100.00
45050;BME280;61798;48.048;-1.928;2023-10-19T00:09:34;98198.09;;;14.29;100.00
45050;BME280;61798;48.048;-1.928;2023-10-19T00:11:47;98194.09;;;14.21;100.00
45050;BME280;61798;48.048;-1.928;2023-10-19T00:13:57;98189.72;;;14.31;100.00
45050;BME280;61798;48.048;-1.928;2023-10-19T00:16:06;98184.34;;;14.31;100.00
45050;BME280;61798;48.048;-1.928;2023-10-19T00:18:33;98173.06;;;14.23;100.00
45050;BME280;61798;48.048;-1.928;2023-10-19T00:20:47;98184.09;;;14.27;100.00
45050;BME280;61798;48.048;-1.928;2023-10-19T00:22:54;98154.47;;;14.22;100.00
45050;BME280;61798;48.048;-1.928;2023-10-19T00:25:02;98157.47;;;14.20;100.00
45050;BME280;61798;48.048;-1.928;2023-10-19T00:27:11;98153.72;;;14.16;100.00
45050;BME280;61798;48.048;-1.928;2023-10-19T00:29:25;98171.16;;;14.29;100.00
45050;BME280;61798;48.048;-1.928;2023-10-19T00:31:37;98136.75;;;14.21;100.00
45050;BME280;61798;48.048;-1.928;2023-10-19T00:33:48;98149.06;;;14.27;100.00
45050;BME280;61798;48.048;-1.928;2023-10-19T00:36:01;98148.25;;;14.32;100.00
45050;BME280;61798;48.048;-1.928;2023-10-19T00:38:20;98120.75;;;14.35;100.00
45050;BME280;61798;48.048;-1.928;2023-10-19T00:40:42;98137.09;;;14.49;100.00
45050;BME280;61798;48.048;-1.928;2023-10-19T00:42:54;98111.56;;;14.36;100.00
45050;BME280;61798;48.048;-1.928;2023-10-19T00:45:04;98105.13;;;14.32;100.00
45050;BME280;61798;48.048;-1.928;2023-10-19T00:47:13;98091.94;;;14.30;100.00
45050;BME280;61798;48.048;-1.928;2023-10-19T00:49:21;98080.94;;;14.26;100.00
45050;BME280;61798;48.048;-1.928;2023-10-19T00:51:35;98116.38;;;14.44;100.00
45050;BME280;61798;48.048;-1.928;2023-10-19T00:53:45;98100.72;;;14.46;100.00
45050;BME280;61798;48.048;-1.928;2023-10-19T00:55:53;98108.53;;;14.48;100.00
45050;BME280;61798;48.048;-1.928;2023-10-19T00:58:00;98115.75;;;14.53;100.00
45050;BME280;61798;48.048;-1.928;2023-10-19T01:00:16;98097.19;;;14.46;100.00
45050;BME280;61798;48.048;-1.928;2023-10-19T01:02:42;98094.00;;;14.44;100.00
45050;BME280;61798;48.048;-1.928;2023-10-19T01:04:55;98092.56;;;14.57;100.00
45050;BME280;61798;48.048;-1.928;2023-10-19T01:07:18;98081.56;;;14.48;100.00
45050;BME280;61798;48.048;-1.928;2023-10-19T01:09:34;98080.19;;;14.51;100.00
45050;BME280;61798;48.048;-1.928;2023-10-19T01:11:43;98078.28;;;14.56;100.00
45050;BME280;61798;48.048;-1.928;2023-10-19T01:14:21;98091.91;;;14.65;100.00
45050;BME280;61798;48.048;-1.928;2023-10-19T01:16:28;98092.50;;;14.62;100.00
45050;BME280;61798;48.048;-1.928;2023-10-19T01:18:35;98080.88;;;14.67;100.00
45050;BME280;61798;48.048;-1.928;2023-10-19T01:20:45;98068.81;;;14.59;100.00
45050;BME280;61798;48.048;-1.928;2023-10-19T01:23:04;98071.94;;;14.72;100.00
45050;BME280;61798;48.048;-1.928;2023-10-19T01:25:28;98074.63;;;14.72;100.00
45050;BME280;61798;48.048;-1.928;2023-10-19T01:27:42;98067.38;;;14.67;100.00
45050;BME280;61798;48.048;-1.928;2023-10-19T01:29:49;98067.84;;;14.74;100.00
45050;BME280;61798;48.048;-1.928;2023-10-19T01:32:08;98060.09;;;14.67;100.00
45050;BME280;61798;48.048;-1.928;2023-10-19T01:34:15;98034.59;;;14.59;100.00
45050;BME280;61798;48.048;-1.928;2023-10-19T01:36:27;98042.28;;;14.72;100.00
45050;BME280;61798;48.048;-1.928;2023-10-19T01:38:34;98011.63;;;14.62;100.00
45050;BME280;61798;48.048;-1.928;2023-10-19T01:40:42;98016.44;;;14.65;100.00
45050;BME280;61798;48.048;-1.928;2023-10-19T01:42:52;98016.28;;;14.56;100.00
45050;BME280;61798;48.048;-1.928;2023-10-19T01:45:00;98045.56;;;14.68;100.00
45050;BME280;61798;48.048;-1.928;2023-10-19T01:47:07;98079.97;;;14.77;100.00
45050;BME280;61798;48.048;-1.928;2023-10-19T01:49:14;98073.81;;;14.71;100.00
45050;BME280;61798;48.048;-1.928;2023-10-19T01:51:26;98085.63;;;14.75;100.00
45050;BME280;61798;48.048;-1.928;2023-10-19T01:53:36;98086.13;;;14.53;100.00
45050;BME280;61798;48.048;-1.928;2023-10-19T01:55:46;98063.47;;;14.19;100.00
45050;BME280;61798;48.048;-1.928;2023-10-19T01:57:54;98082.63;;;14.17;100.00
45050;BME280;61798;48.048;-1.928;2023-10-19T02:00:00;98069.75;;;14.09;100.00
45050;BME280;61798;48.048;-1.928;2023-10-19T02:02:20;98050.47;;;13.91;100.00
45050;BME280;61798;48.048;-1.928;2023-10-19T02:04:29;98048.34;;;13.88;100.00
45050;BME280;61798;48.048;-1.928;2023-10-19T02:06:41;98039.53;;;13.77;100.00
45050;BME280;61798;48.048;-1.928;2023-10-19T02:08:52;98024.16;;;13.82;100.00
45050;BME280;61798;48.048;-1.928;2023-10-19T02:11:03;98015.94;;;13.58;100.00
45050;BME280;61798;48.048;-1.928;2023-10-19T02:13:10;98029.63;;;13.67;100.00
45050;BME280;61798;48.048;-1.928;2023-10-19T02:15:17;98036.91;;;13.66;100.00
45050;BME280;61798;48.048;-1.928;2023-10-19T02:17:23;98005.16;;;13.58;100.00
45050;BME280;61798;48.048;-1.928;2023-10-19T02:19:30;97998.16;;;13.62;100.00
45050;BME280;61798;48.048;-1.928;2023-10-19T02:21:39;98018.91;;;13.61;100.00
45050;BME280;61798;48.048;-1.928;2023-10-19T02:23:48;98032.81;;;13.74;100.00
45050;BME280;61798;48.048;-1.928;2023-10-19T02:25:57;98001.50;;;13.43;100.00
45050;BME280;61798;48.048;-1.928;2023-10-19T02:28:04;98016.19;;;13.67;100.00
45050;BME280;61798;48.048;-1.928;2023-10-19T02:30:18;98015.94;;;13.58;100.00
45050;BME280;61798;48.048;-1.928;2023-10-19T02:32:25;98011.88;;;13.66;100.00
45050;BME280;61798;48.048;-1.928;2023-10-19T02:34:32;97999.28;;;13.56;100.00
45050;BME280;61798;48.048;-1.928;2023-10-19T02:36:44;98005.41;;;13.67;100.00
45050;BME280;61798;48.048;-1.928;2023-10-19T02:38:54;97975.88;;;13.61;100.00
45050;BME280;61798;48.048;-1.928;2023-10-19T02:41:02;97975.28;;;13.59;100.00
45050;BME280;61798;48.048;-1.928;2023-10-19T02:43:10;97980.88;;;13.73;100.00
45050;BME280;61798;48.048;-1.928;2023-10-19T02:45:18;97963.97;;;13.68;100.00
45050;BME280;61798;48.048;-1.928;2023-10-19T02:47:26;97978.72;;;13.76;100.00
45050;BME280;61798;48.048;-1.928;2023-10-19T02:49:35;97964.19;;;13.77;100.00
45050;BME280;61798;48.048;-1.928;2023-10-19T02:51:46;97983.47;;;13.89;100.00
45050;BME280;61798;48.048;-1.928;2023-10-19T02:53:53;97943.13;;;13.84;100.00
45050;BME280;61798;48.048;-1.928;2023-10-19T02:56:09;97967.25;;;13.94;100.00
45050;BME280;61798;48.048;-1.928;2023-10-19T02:58:17;97944.97;;;13.89;100.00
45050;BME280;61798;48.048;-1.928;2023-10-19T03:00:24;97974.22;;;14.01;100.00
45050;BME280;61798;48.048;-1.928;2023-10-19T03:02:40;97968.97;;;14.15;100.00
45050;BME280;61798;48.048;-1.928;2023-10-19T03:04:48;97972.81;;;14.09;100.00
45050;BME280;61798;48.048;-1.928;2023-10-19T03:06:56;97976.03;;;14.11;100.00
45050;BME280;61798;48.048;-1.928;2023-10-19T03:09:08;97961.03;;;13.99;100.00
45050;BME280;61798;48.048;-1.928;2023-10-19T03:11:40;97964.19;;;14.06;100.00
45050;BME280;61798;48.048;-1.928;2023-10-19T03:13:47;97958.78;;;14.12;100.00
45050;BME280;61798;48.048;-1.928;2023-10-19T03:15:57;97952.09;;;14.09;100.00
45050;BME280;61798;48.048;-1.928;2023-10-19T03:18:04;97963.41;;;14.06;100.00
45050;BME280;61798;48.048;-1.928;2023-10-19T03:20:11;97946.44;;;14.05;100.00
45050;BME280;61798;48.048;-1.928;2023-10-19T03:22:18;97937.13;;;13.92;100.00
45050;BME280;61798;48.048;-1.928;2023-10-19T03:24:26;97953.16;;;14.08;100.00
45050;BME280;61798;48.048;-1.928;2023-10-19T03:26:50;97965.81;;;14.08;100.00
45050;BME280;61798;48.048;-1.928;2023-10-19T03:28:57;97948.28;;;14.10;100.00
45050;BME280;61798;48.048;-1.928;2023-10-19T03:31:18;97911.03;;;13.93;100.00
45050;BME280;61798;48.048;-1.928;2023-10-19T03:33:25;97907.84;;;13.85;100.00
45050;BME280;61798;48.048;-1.928;2023-10-19T03:35:36;97930.38;;;13.95;100.00
45050;BME280;61798;48.048;-1.928;2023-10-19T03:37:44;97903.59;;;13.79;100.00
45050;BME280;61798;48.048;-1.928;2023-10-19T03:39:54;97899.88;;;13.75;100.00
45050;BME280;61798;48.048;-1.928;2023-10-19T03:42:05;97924.25;;;13.89;100.00
45050;BME280;61798;48.048;-1.928;2023-10-19T03:44:16;97921.56;;;13.89;100.00
45050;BME280;61798;48.048;-1.928;2023-10-19T03:46:29;97913.53;;;13.84;100.00
45050;BME280;61798;48.048;-1.928;2023-10-19T03:48:45;97884.78;;;13.74;100.00
45050;BME280;61798;48.048;-1.928;2023-10-19T03:50:53;97899.25;;;13.83;100.00
45050;BME280;61798;48.048;-1.928;2023-10-19T03:53:03;97892.63;;;13.70;100.00
45050;BME280;61798;48.048;-1.928;2023-10-19T03:55:15;97888.66;;;13.62;100.00
45050;BME280;61798;48.048;-1.928;2023-10-19T03:57:25;97912.28;;;13.71;100.00
45050;BME280;61798;48.048;-1.928;2023-10-19T03:59:35;97901.53;;;13.66;100.00
45050;BME280;61798;48.048;-1.928;2023-10-19T04:01:44;97910.63;;;13.75;100.00
45050;BME280;61798;48.048;-1.928;2023-10-19T04:03:51;97913.34;;;13.70;100.00
45050;BME280;61798;48.048;-1.928;2023-10-19T04:06:07;97889.00;;;13.50;100.00
45050;BME280;61798;48.048;-1.928;2023-10-19T04:08:20;97890.84;;;13.55;100.00
45050;BME280;61798;48.048;-1.928;2023-10-19T04:10:33;97882.31;;;13.42;100.00
45050;BME280;61798;48.048;-1.928;2023-10-19T04:12:51;97890.88;;;13.50;100.00
45050;BME280;61798;48.048;-1.928;2023-10-19T04:14:58;97902.97;;;13.52;100.00
45050;BME280;61798;48.048;-1.928;2023-10-19T04:17:24;97907.50;;;13.62;100.00
45050;BME280;61798;48.048;-1.928;2023-10-19T04:19:30;97909.38;;;13.62;100.00
45050;BME280;61798;48.048;-1.928;2023-10-19T04:21:37;97921.50;;;13.64;100.00
45050;BME280;61798;48.048;-1.928;2023-10-19T04:23:52;97898.16;;;13.49;100.00
45050;BME280;61798;48.048;-1.928;2023-10-19T04:25:59;97880.19;;;13.39;100.00
45050;BME280;61798;48.048;-1.928;2023-10-19T04:28:12;97914.50;;;13.63;100.00
45050;BME280;61798;48.048;-1.928;2023-10-19T04:30:28;97888.69;;;13.57;100.00
45050;BME280;61798;48.048;-1.928;2023-10-19T04:32:36;97901.53;;;13.66;100.00
45050;BME280;61798;48.048;-1.928;2023-10-19T04:34:46;97891.66;;;13.56;100.00
45050;BME280;61798;48.048;-1.928;2023-10-19T04:36:54;97906.41;;;13.58;100.00
45050;BME280;61798;48.048;-1.928;2023-10-19T04:39:01;97901.03;;;13.58;100.00
45050;BME280;61798;48.048;-1.928;2023-10-19T04:41:10;97891.88;;;13.59;100.00
45050;BME280;61798;48.048;-1.928;2023-10-19T04:43:17;97850.09;;;13.37;100.00
45050;BME280;61798;48.048;-1.928;2023-10-19T04:45:24;97877.91;;;13.62;100.00
45050;BME280;61798;48.048;-1.928;2023-10-19T04:47:32;97873.06;;;13.64;100.00
45050;BME280;61798;48.048;-1.928;2023-10-19T04:49:42;97832.84;;;13.38;100.00
45050;BME280;61798;48.048;-1.928;2023-10-19T04:51:49;97857.75;;;13.54;100.00
45050;BME280;61798;48.048;-1.928;2023-10-19T04:53:57;97865.25;;;13.63;100.00
45050;BME280;61798;48.048;-1.928;2023-10-19T04:56:05;97870.06;;;13.66;100.00
45050;BME280;61798;48.048;-1.928;2023-10-19T04:58:14;97851.56;;;13.54;100.00
45050;BME280;61798;48.048;-1.928;2023-10-19T05:00:20;97854.22;;;13.59;100.00
45050;BME280;61798;48.048;-1.928;2023-10-19T05:02:27;97839.25;;;13.48;100.00
45050;BME280;61798;48.048;-1.928;2023-10-19T05:04:33;97854.78;;;13.61;100.00
45050;BME280;61798;48.048;-1.928;2023-10-19T05:06:39;97850.72;;;13.59;100.00
45050;BME280;61798;48.048;-1.928;2023-10-19T05:08:56;97837.84;;;13.56;100.00
45050;BME280;61798;48.048;-1.928;2023-10-19T05:11:03;97832.19;;;13.57;100.00
45050;BME280;61798;48.048;-1.928;2023-10-19T05:13:11;97833.84;;;13.53;100.00
45050;BME280;61798;48.048;-1.928;2023-10-19T05:15:19;97834.06;;;13.57;100.00
45050;BME280;61798;48.048;-1.928;2023-10-19T05:17:26;97825.00;;;13.47;100.00
45050;BME280;61798;48.048;-1.928;2023-10-19T05:19:34;97821.00;;;13.45;100.00
45050;BME280;61798;48.048;-1.928;2023-10-19T05:25:39;97785.81;;;13.36;100.00
45050;BME280;61798;48.048;-1.928;2023-10-19T05:27:47;97778.31;;;13.32;100.00
45050;BME280;61798;48.048;-1.928;2023-10-19T05:29:53;97790.69;;;13.34;100.00
45050;BME280;61798;48.048;-1.928;2023-10-19T05:31:59;97791.44;;;13.39;100.00
45050;BME280;61798;48.048;-1.928;2023-10-19T05:34:07;97773.22;;;13.31;100.00
45050;BME280;61798;48.048;-1.928;2023-10-19T05:36:16;97800.28;;;13.45;100.00
45050;BME280;61798;48.048;-1.928;2023-10-19T05:38:23;97776.91;;;13.40;100.00
45050;BME280;61798;48.048;-1.928;2023-10-19T05:40:29;97787.59;;;13.46;100.00
45050;BME280;61798;48.048;-1.928;2023-10-19T05:42:36;97782.88;;;13.37;100.00
45050;BME280;61798;48.048;-1.928;2023-10-19T05:44:42;97751.81;;;13.20;100.00
45050;BME280;61798;48.048;-1.928;2023-10-19T05:46:49;97758.50;;;13.23;100.00
45050;BME280;61798;48.048;-1.928;2023-10-19T05:48:56;97781.47;;;13.40;100.00
45050;BME280;61798;48.048;-1.928;2023-10-19T05:51:04;97766.50;;;13.34;100.00
45050;BME280;61798;48.048;-1.928;2023-10-19T05:53:11;97752.25;;;13.33;100.00
45050;BME280;61798;48.048;-1.928;2023-10-19T05:55:18;97762.94;;;13.38;100.00
45050;BME280;61798;48.048;-1.928;2023-10-19T05:57:28;97757.84;;;13.37;100.00
45050;BME280;61798;48.048;-1.928;2023-10-19T05:59:35;97761.59;;;13.41;100.00
45050;BME280;61798;48.048;-1.928;2023-10-19T06:01:43;97759.44;;;13.38;100.00
45050;BME280;61798;48.048;-1.928;2023-10-19T06:03:54;97770.97;;;13.43;100.00
45050;BME280;61798;48.048;-1.928;2023-10-19T06:06:01;97762.13;;;13.38;100.00
45050;BME280;61798;48.048;-1.928;2023-10-19T06:08:08;97755.16;;;13.37;100.00
45050;BME280;61798;48.048;-1.928;2023-10-19T06:10:19;97768.22;;;13.49;100.00
45050;BME280;61798;48.048;-1.928;2023-10-19T06:12:27;97772.00;;;13.48;100.00
45050;BME280;61798;48.048;-1.928;2023-10-19T06:14:35;97770.34;;;13.52;100.00
45050;BME280;61798;48.048;-1.928;2023-10-19T06:16:42;97762.84;;;13.49;100.00
45050;BME280;61798;48.048;-1.928;2023-10-19T06:19:28;97761.50;;;13.46;100.00
45050;BME280;61798;48.048;-1.928;2023-10-19T06:21:52;97747.81;;;13.42;100.00
45050;BME280;61798;48.048;-1.928;2023-10-19T06:24:02;97767.66;;;13.52;100.00
45050;BME280;61798;48.048;-1.928;2023-10-19T06:26:10;97771.88;;;13.58;100.00
45050;BME280;61798;48.048;-1.928;2023-10-19T06:28:23;97772.97;;;13.62;100.00
45050;BME280;61798;48.048;-1.928;2023-10-19T06:30:33;97780.22;;;13.62;100.00
45050;BME280;61798;48.048;-1.928;2023-10-19T06:32:39;97778.38;;;13.57;100.00
45050;BME280;61798;48.048;-1.928;2023-10-19T06:34:45;97760.91;;;13.54;100.00
45050;BME280;61798;48.048;-1.928;2023-10-19T06:36:52;97727.81;;;13.29;100.00
45050;BME280;61798;48.048;-1.928;2023-10-19T06:38:57;97759.00;;;13.60;100.00
45050;BME280;61798;48.048;-1.928;2023-10-19T06:41:13;97781.69;;;13.79;100.00
45050;BME280;61798;48.048;-1.928;2023-10-19T06:43:19;97742.78;;;13.66;100.00
45050;BME280;61798;48.048;-1.928;2023-10-19T06:45:29;97781.28;;;13.91;100.00
45050;BME280;61798;48.048;-1.928;2023-10-19T06:47:35;97792.00;;;13.96;100.00
45050;BME280;61798;48.048;-1.928;2023-10-19T06:49:44;97740.41;;;13.64;100.00
45050;BME280;61798;48.048;-1.928;2023-10-19T06:51:50;97764.16;;;13.81;100.00
45050;BME280;61798;48.048;-1.928;2023-10-19T06:53:56;97771.31;;;13.91;100.00
45050;BME280;61798;48.048;-1.928;2023-10-19T06:56:03;97767.81;;;13.91;100.00
45050;BME280;61798;48.048;-1.928;2023-10-19T06:58:09;97805.09;;;14.03;100.00
45050;BME280;61798;48.048;-1.928;2023-10-19T07:00:19;97768.41;;;13.88;100.00
45050;BME280;61798;48.048;-1.928;2023-10-19T07:02:27;97798.13;;;14.02;100.00
45050;BME280;61798;48.048;-1.928;2023-10-19T07:04:33;97795.94;;;14.04;100.00
45050;BME280;61798;48.048;-1.928;2023-10-19T07:06:39;97777.69;;;14.01;100.00
45050;BME280;61798;48.048;-1.928;2023-10-19T07:08:45;97772.63;;;13.94;100.00
45050;BME280;61798;48.048;-1.928;2023-10-19T07:10:52;97768.00;;;14.00;100.00
45050;BME280;61798;48.048;-1.928;2023-10-19T07:12:57;97783.44;;;14.13;100.00
45050;BME280;61798;48.048;-1.928;2023-10-19T07:15:06;97790.38;;;14.20;100.00
45050;BME280;61798;48.048;-1.928;2023-10-19T07:17:15;97771.91;;;14.13;100.00
45050;BME280;61798;48.048;-1.928;2023-10-19T07:19:21;97782.25;;;14.25;100.00
45050;BME280;61798;48.048;-1.928;2023-10-19T07:21:26;97777.16;;;14.23;100.00
45050;BME280;61798;48.048;-1.928;2023-10-19T07:23:35;97802.50;;;14.42;100.00
45050;BME280;61798;48.048;-1.928;2023-10-19T07:25:44;97762.28;;;14.26;100.00
45050;BME280;61798;48.048;-1.928;2023-10-19T07:27:51;97798.56;;;14.53;100.00
45050;BME280;61798;48.048;-1.928;2023-10-19T07:29:57;97777.22;;;14.37;100.00
45050;BME280;61798;48.048;-1.928;2023-10-19T07:32:04;97785.84;;;14.59;100.00
45050;BME280;61798;48.048;-1.928;2023-10-19T07:34:10;97771.72;;;14.48;100.00
45050;BME280;61798;48.048;-1.928;2023-10-19T07:36:20;97787.94;;;14.62;100.00
45050;BME280;61798;48.048;-1.928;2023-10-19T07:38:26;97769.13;;;14.37;100.00
45050;BME280;61798;48.048;-1.928;2023-10-19T07:40:35;97791.44;;;14.63;100.00
45050;BME280;61798;48.048;-1.928;2023-10-19T07:42:41;97778.63;;;14.54;100.00
45050;BME280;61798;48.048;-1.928;2023-10-19T07:44:48;97766.47;;;14.57;100.00
45050;BME280;61798;48.048;-1.928;2023-10-19T07:46:54;97765.09;;;14.59;100.00
45050;BME280;61798;48.048;-1.928;2023-10-19T07:49:00;97786.59;;;14.84;100.00
45050;BME280;61798;48.048;-1.928;2023-10-19T07:51:08;97774.41;;;14.87;100.00
45050;BME280;61798;48.048;-1.928;2023-10-19T07:53:16;97772.56;;;14.82;100.00
45050;BME280;61798;48.048;-1.928;2023-10-19T07:55:22;97753.56;;;14.73;100.00
45050;BME280;61798;48.048;-1.928;2023-10-19T07:57:31;97773.66;;;14.81;100.00
45050;BME280;61798;48.048;-1.928;2023-10-19T07:59:37;97764.81;;;14.80;100.00
45050;BME280;61798;48.048;-1.928;2023-10-19T08:01:43;97760.72;;;14.83;100.00
45050;BME280;61798;48.048;-1.928;2023-10-19T08:03:48;97751.59;;;14.98;100.00
45050;BME280;61798;48.048;-1.928;2023-10-19T08:05:54;97763.25;;;14.94;100.00
45050;BME280;61798;48.048;-1.928;2023-10-19T08:08:00;97748.25;;;14.87;100.00
45050;BME280;61798;48.048;-1.928;2023-10-19T08:10:07;97781.66;;;14.92;100.00
45050;BME280;61798;48.048;-1.928;2023-10-19T08:12:14;97779.50;;;14.88;100.00
45050;BME280;61798;48.048;-1.928;2023-10-19T08:14:27;97768.19;;;14.86;100.00
45050;BME280;61798;48.048;-1.928;2023-10-19T08:16:42;97738.19;;;14.74;100.00
45050;BME280;61798;48.048;-1.928;2023-10-19T08:18:49;97784.09;;;15.07;100.00
45050;BME280;61798;48.048;-1.928;2023-10-19T08:20:55;97758.81;;;14.84;100.00
45050;BME280;61798;48.048;-1.928;2023-10-19T08:23:01;97760.44;;;15.04;100.00
45050;BME280;61798;48.048;-1.928;2023-10-19T08:25:07;97790.41;;;15.36;100.00
45050;BME280;61798;48.048;-1.928;2023-10-19T08:27:17;97804.56;;;15.28;100.00
45050;BME280;61798;48.048;-1.928;2023-10-19T08:29:23;97796.94;;;15.30;100.00
45050;BME280;61798;48.048;-1.928;2023-10-19T08:31:29;97769.94;;;15.16;100.00
45050;BME280;61798;48.048;-1.928;2023-10-19T08:33:36;97767.53;;;15.14;100.00
45050;BME280;61798;48.048;-1.928;2023-10-19T08:35:44;97770.75;;;15.16;100.00
45050;BME280;61798;48.048;-1.928;2023-10-19T08:37:54;97785.00;;;15.36;100.00
45050;BME280;61798;48.048;-1.928;2023-10-19T08:40:00;97786.38;;;15.33;100.00
45050;BME280;61798;48.048;-1.928;2023-10-19T08:42:07;97778.47;;;15.37;100.00
45050;BME280;61798;48.048;-1.928;2023-10-19T08:44:13;97775.91;;;15.46;100.00
45050;BME280;61798;48.048;-1.928;2023-10-19T08:46:22;97730.78;;;15.18;100.00
45050;BME280;61798;48.048;-1.928;2023-10-19T08:48:33;97720.00;;;15.18;100.00
45050;BME280;61798;48.048;-1.928;2023-10-19T08:50:40;97752.81;;;15.40;100.00
45050;BME280;61798;48.048;-1.928;2023-10-19T08:52:47;97751.72;;;15.41;100.00
45050;BME280;61798;48.048;-1.928;2023-10-19T08:54:53;97760.03;;;15.45;100.00
45050;BME280;61798;48.048;-1.928;2023-10-19T08:56:59;97764.22;;;15.51;100.00
45050;BME280;61798;48.048;-1.928;2023-10-19T08:59:05;97759.03;;;15.54;100.00
45050;BME280;61798;48.048;-1.928;2023-10-19T09:01:11;97749.44;;;15.48;100.00
45050;BME280;61798;48.048;-1.928;2023-10-19T09:03:18;97711.03;;;15.23;100.00
45050;BME280;61798;48.048;-1.928;2023-10-19T09:05:23;97722.22;;;15.30;100.00
45050;BME280;61798;48.048;-1.928;2023-10-19T09:07:31;97726.25;;;15.47;100.00
45050;BME280;61798;48.048;-1.928;2023-10-19T09:09:39;97707.84;;;15.49;100.00
45050;BME280;61798;48.048;-1.928;2023-10-19T09:11:49;97709.84;;;15.58;100.00
45050;BME280;61798;48.048;-1.928;2023-10-19T09:13:55;97674.88;;;15.52;100.00
45050;BME280;61798;48.048;-1.928;2023-10-19T09:16:04;97683.69;;;15.72;100.00
45050;BME280;61798;48.048;-1.928;2023-10-19T09:18:20;97688.34;;;15.81;100.00
45050;BME280;61798;48.048;-1.928;2023-10-19T09:20:26;97689.25;;;15.90;100.00
45050;BME280;61798;48.048;-1.928;2023-10-19T09:22:35;97681.25;;;15.99;100.00
45050;BME280;61798;48.048;-1.928;2023-10-19T09:24:43;97664.47;;;15.88;100.00
45050;BME280;61798;48.048;-1.928;2023-10-19T09:26:50;97650.97;;;15.74;100.00
45050;BME280;61798;48.048;-1.928;2023-10-19T09:28:56;97651.97;;;15.92;100.00
45050;BME280;61798;48.048;-1.928;2023-10-19T09:31:02;97634.25;;;15.86;100.00
45050;BME280;61798;48.048;-1.928;2023-10-19T09:33:09;97629.41;;;15.97;100.00
45050;BME280;61798;48.048;-1.928;2023-10-19T09:35:15;97643.31;;;16.19;100.00
45050;BME280;61798;48.048;-1.928;2023-10-19T09:37:23;97612.91;;;15.99;100.00
45050;BME280;61798;48.048;-1.928;2023-10-19T09:39:30;97616.66;;;16.26;100.00
45050;BME280;61798;48.048;-1.928;2023-10-19T09:41:42;97600.19;;;16.36;100.00
45050;BME280;61798;48.048;-1.928;2023-10-19T09:43:50;97612.59;;;16.60;100.00
45050;BME280;61798;48.048;-1.928;2023-10-19T09:45:57;97572.44;;;16.22;100.00
45050;BME280;61798;48.048;-1.928;2023-10-19T09:48:06;97599.97;;;16.47;100.00
45050;BME280;61798;48.048;-1.928;2023-10-19T09:50:13;97559.94;;;16.26;100.00
45050;BME280;61798;48.048;-1.928;2023-10-19T09:52:20;97590.50;;;16.58;100.00
45050;BME280;61798;48.048;-1.928;2023-10-19T09:54:40;97572.63;;;16.48;100.00
45050;BME280;61798;48.048;-1.928;2023-10-19T09:56:50;97594.09;;;16.77;100.00
45050;BME280;61798;48.048;-1.928;2023-10-19T09:59:03;97568.81;;;16.49;100.00
45050;BME280;61798;48.048;-1.928;2023-10-19T10:01:10;97583.31;;;16.54;100.00
45050;BME280;61798;48.048;-1.928;2023-10-19T10:05:47;97583.38;;;16.40;100.00
45050;BME280;61798;48.048;-1.928;2023-10-19T10:10:22;97564.84;;;16.24;100.00
45050;BME280;61798;48.048;-1.928;2023-10-19T10:12:28;97564.91;;;16.10;100.00
45050;BME280;61798;48.048;-1.928;2023-10-19T10:14:34;97579.75;;;16.21;100.00
45050;BME280;61798;48.048;-1.928;2023-10-19T10:16:40;97547.81;;;16.00;100.00
45050;BME280;61798;48.048;-1.928;2023-10-19T10:18:50;97585.41;;;16.11;100.00
45050;BME280;61798;48.048;-1.928;2023-10-19T10:21:11;97584.00;;;16.13;100.00
45050;BME280;61798;48.048;-1.928;2023-10-19T10:23:21;97581.41;;;16.08;100.00
45050;BME280;61798;48.048;-1.928;2023-10-19T10:25:38;97588.00;;;16.02;100.00
45050;BME280;61798;48.048;-1.928;2023-10-19T10:27:51;97594.84;;;15.85;100.00
45050;BME280;61798;48.048;-1.928;2023-10-19T10:29:58;97589.22;;;15.44;100.00
45050;BME280;61798;48.048;-1.928;2023-10-19T10:32:05;97604.22;;;15.22;100.00
45050;BME280;61798;48.048;-1.928;2023-10-19T10:37:02;97610.50;;;15.17;100.00
45050;BME280;61798;48.048;-1.928;2023-10-19T10:39:08;97595.63;;;15.06;100.00
45050;BME280;61798;48.048;-1.928;2023-10-19T10:41:25;97613.88;;;15.09;100.00
45050;BME280;61798;48.048;-1.928;2023-10-19T10:43:33;97614.69;;;14.95;100.00
45050;BME280;61798;48.048;-1.928;2023-10-19T10:45:39;97575.97;;;14.72;100.00
45050;BME280;61798;48.048;-1.928;2023-10-19T10:47:45;97575.38;;;14.61;100.00
45050;BME280;61798;48.048;-1.928;2023-10-19T10:49:56;97614.53;;;14.86;100.00
45050;BME280;61798;48.048;-1.928;2023-10-19T10:52:02;97607.75;;;14.89;100.00
45050;BME280;61798;48.048;-1.928;2023-10-19T10:54:08;97616.78;;;14.98;100.00
45050;BME280;61798;48.048;-1.928;2023-10-19T10:56:16;97562.97;;;15.07;100.00
45050;BME280;61798;48.048;-1.928;2023-10-19T10:58:22;97529.00;;;14.92;100.00
45050;BME280;61798;48.048;-1.928;2023-10-19T11:00:27;97564.47;;;15.28;100.00
45050;BME280;61798;48.048;-1.928;2023-10-19T11:02:35;97557.66;;;15.30;100.00
45050;BME280;61798;48.048;-1.928;2023-10-19T11:04:45;97543.16;;;15.26;100.00
45050;BME280;61798;48.048;-1.928;2023-10-19T11:06:53;97568.66;;;15.34;100.00
45050;BME280;61798;48.048;-1.928;2023-10-19T11:09:09;97567.84;;;15.33;100.00
45050;BME280;61798;48.048;-1.928;2023-10-19T11:11:15;97568.44;;;15.30;100.00
45050;BME280;61798;48.048;-1.928;2023-10-19T11:13:24;97559.75;;;15.33;100.00
45050;BME280;61798;48.048;-1.928;2023-10-19T11:15:30;97561.34;;;15.35;100.00
45050;BME280;61798;48.048;-1.928;2023-10-19T11:17:43;97540.47;;;15.26;100.00
45050;BME280;61798;48.048;-1.928;2023-10-19T11:19:51;97525.19;;;15.21;100.00